createdAt,value
2018-01-22T00:01:10.981Z,22.52
2018-01-22T00:03:39.491Z,20.70
2018-01-22T00:06:07.676Z,19.10
2018-01-22T00:08:36.585Z,18.30
2018-01-22T00:11:04.723Z,20.75
2018-01-22T00:13:32.871Z,22.00
2018-01-22T00:16:00.994Z,21.62
2018-01-22T00:18:30.699Z,20.33
2018-01-22T00:20:59.576Z,17.45
2018-01-22T00:23:28.476Z,19.30
2018-01-22T00:25:56.636Z,19.52
2018-01-22T00:28:24.749Z,19.70
2018-01-22T00:30:52.871Z,18.98
2018-01-22T00:33:21.042Z,18.95
2018-01-22T00:35:49.160Z,19.15
2018-01-22T00:38:17.281Z,18.60
2018-01-22T00:40:45.412Z,17.73
2018-01-22T00:43:13.529Z,18.33
2018-01-22T00:45:42.436Z,20.80
2018-01-22T00:48:11.333Z,17.37
2018-01-22T00:50:39.470Z,16.77
2018-01-22T00:53:07.594Z,15.68
2018-01-22T00:55:35.740Z,19.10
2018-01-22T00:58:03.895Z,16.25
2018-01-22T01:00:32.045Z,18.02
2018-01-22T01:03:00.172Z,16.12
2018-01-22T01:05:28.317Z,16.60
2018-01-22T01:07:57.208Z,14.07
2018-01-22T01:10:26.118Z,17.30
2018-01-22T01:12:54.271Z,17.52
2018-01-22T01:15:22.397Z,13.82
2018-01-22T01:17:50.549Z,16.70
2018-01-22T01:20:18.666Z,15.50
2018-01-22T01:22:46.804Z,14.48
2018-01-22T01:25:14.942Z,18.48
2018-01-22T01:27:43.090Z,16.05
2018-01-22T01:30:11.252Z,16.55
2018-01-22T01:32:39.397Z,18.25
2018-01-22T01:35:07.528Z,16.80
2018-01-22T01:37:35.684Z,14.98
2018-01-22T01:40:03.829Z,16.45
2018-01-22T01:42:31.985Z,16.33
2018-01-22T01:45:00.112Z,19.02
2018-01-22T01:47:28.236Z,16.67
2018-01-22T01:49:56.436Z,17.05
2018-01-22T01:52:24.550Z,20.58
2018-01-22T01:54:52.707Z,18.98
2018-01-22T01:57:20.842Z,20.00
2018-01-22T01:59:48.984Z,20.70
2018-01-22T02:02:17.112Z,21.00
2018-01-22T02:04:45.277Z,19.25
2018-01-22T02:07:14.160Z,21.23
2018-01-22T02:09:43.065Z,22.80
2018-01-22T02:12:11.206Z,23.58
2018-01-22T02:14:39.680Z,19.85
2018-01-22T02:17:07.792Z,20.90
2018-01-22T02:19:50.844Z,19.05
2018-01-22T02:22:19.891Z,23.55
2018-01-22T02:24:48.818Z,22.80
2018-01-22T02:27:16.964Z,18.98
2018-01-22T02:29:45.093Z,20.02
2018-01-22T02:32:13.253Z,22.23
2018-01-22T02:34:41.407Z,22.90
2018-01-22T02:37:09.546Z,23.40
2018-01-22T02:39:37.675Z,22.17
2018-01-22T02:42:05.952Z,21.75
2018-01-22T02:44:34.093Z,21.50
2018-01-22T02:47:02.226Z,21.00
2018-01-22T02:49:30.356Z,22.80
2018-01-22T02:51:58.496Z,27.17
2018-01-22T02:54:26.627Z,22.75
2018-01-22T02:56:55.548Z,25.37
2018-01-22T02:59:23.678Z,27.17
2018-01-22T03:01:51.810Z,27.02
2018-01-22T03:04:19.940Z,27.13
2018-01-22T03:06:48.890Z,26.85
2018-01-22T03:09:17.003Z,29.92
2018-01-22T03:11:45.980Z,26.15
2018-01-22T03:14:14.137Z,29.87
2018-01-22T03:16:42.269Z,27.58
2018-01-22T03:19:10.418Z,29.75
2018-01-22T03:21:38.544Z,28.17
2018-01-22T03:24:06.684Z,26.58
2018-01-22T03:26:34.820Z,28.20
2018-01-22T03:29:03.740Z,26.23
2018-01-22T03:31:31.977Z,25.40
2018-01-22T03:34:00.121Z,25.55
2018-01-22T03:36:28.248Z,26.33
2018-01-22T03:38:56.389Z,26.02
2018-01-22T03:41:24.518Z,23.92
2018-01-22T03:43:52.652Z,24.55
2018-01-22T03:46:21.589Z,21.42
2018-01-22T03:48:49.725Z,24.90
2018-01-22T03:51:17.853Z,25.35
2018-01-22T03:53:45.977Z,24.42
2018-01-22T03:56:14.128Z,25.12
2018-01-22T03:58:43.040Z,23.92
2018-01-22T04:01:11.500Z,21.87
2018-01-22T04:03:40.382Z,20.70
2018-01-22T04:06:09.295Z,20.25
2018-01-22T04:08:37.421Z,22.10
2018-01-22T04:11:05.572Z,20.60
2018-01-22T04:13:33.690Z,24.73
2018-01-22T04:16:02.602Z,18.15
2018-01-22T04:18:30.836Z,21.33
2018-01-22T04:20:58.979Z,19.05
2018-01-22T04:23:27.508Z,20.27
2018-01-22T04:25:56.411Z,19.50
2018-01-22T04:28:24.544Z,21.10
2018-01-22T04:30:52.675Z,20.98
2018-01-22T04:33:20.822Z,22.37
2018-01-22T04:35:48.967Z,21.48
2018-01-22T04:38:17.867Z,22.60
2018-01-22T04:40:46.936Z,20.10
2018-01-22T04:43:15.081Z,20.52
2018-01-22T04:45:43.220Z,20.00
2018-01-22T04:48:11.364Z,21.95
2018-01-22T04:50:39.860Z,20.92
2018-01-22T04:53:08.872Z,17.48
2018-01-22T04:55:37.001Z,18.20
2018-01-22T04:58:05.165Z,18.87
2018-01-22T05:00:33.294Z,18.77
2018-01-22T05:03:01.444Z,19.25
2018-01-22T05:05:29.630Z,17.40
2018-01-22T05:07:57.701Z,19.60
2018-01-22T05:10:25.848Z,17.50
2018-01-22T05:12:54.752Z,18.25
2018-01-22T05:15:22.888Z,18.50
2018-01-22T05:17:51.016Z,15.88
2018-01-22T05:20:19.164Z,18.00
2018-01-22T05:22:47.308Z,17.12
2018-01-22T05:25:15.445Z,16.62
2018-01-22T05:27:43.576Z,17.15
2018-01-22T05:30:11.832Z,19.27
2018-01-22T05:32:40.736Z,18.65
2018-01-22T05:35:09.648Z,17.58
2018-01-22T05:37:37.783Z,18.17
2018-01-22T05:40:06.694Z,15.50
2018-01-22T05:42:34.818Z,17.23
2018-01-22T05:45:02.974Z,16.08
2018-01-22T05:47:31.109Z,15.48
2018-01-22T05:50:00.068Z,15.77
2018-01-22T05:52:28.210Z,18.25
2018-01-22T05:54:56.336Z,16.58
2018-01-22T05:57:25.240Z,17.05
2018-01-22T05:59:53.361Z,15.82
2018-01-22T06:02:21.545Z,18.00
2018-01-22T06:04:49.992Z,17.08
2018-01-22T06:07:18.201Z,14.90
2018-01-22T06:09:46.343Z,15.98
2018-01-22T06:12:14.568Z,15.40
2018-01-22T06:14:42.709Z,14.15
2018-01-22T06:17:10.844Z,16.23
2018-01-22T06:19:39.048Z,15.20
2018-01-22T06:22:07.555Z,15.45
2018-01-22T06:24:35.668Z,13.48
2018-01-22T06:27:03.844Z,14.00
2018-01-22T06:29:32.022Z,15.60
2018-01-22T06:32:00.153Z,15.02
2018-01-22T06:34:28.320Z,12.98
2018-01-22T06:36:56.464Z,14.23
2018-01-22T06:39:25.372Z,14.75
2018-01-22T06:41:54.276Z,14.73
2018-01-22T06:44:22.429Z,15.50
2018-01-22T06:46:50.583Z,16.45
2018-01-22T06:49:18.709Z,16.25
2018-01-22T06:51:46.862Z,16.27
2018-01-22T06:54:15.012Z,17.00
2018-01-22T06:56:43.929Z,18.73
2018-01-22T06:59:12.193Z,16.17
2018-01-22T07:01:40.443Z,14.70
2018-01-22T07:04:09.349Z,15.13
2018-01-22T07:06:38.249Z,15.38
2018-01-22T07:09:06.409Z,15.63
2018-01-22T07:11:34.545Z,14.25
2018-01-22T07:14:04.208Z,16.20
2018-01-22T07:16:32.381Z,16.60
2018-01-22T07:19:00.527Z,14.50
2018-01-22T07:21:28.646Z,14.25
2018-01-22T07:23:56.788Z,15.35
2018-01-22T07:26:24.912Z,14.63
2018-01-22T07:28:54.553Z,13.73
2018-01-22T07:31:22.688Z,13.60
2018-01-22T07:33:50.864Z,15.20
2018-01-22T07:36:18.989Z,16.00
2018-01-22T07:38:47.129Z,15.00
2018-01-22T07:41:16.030Z,14.80
2018-01-22T07:43:44.175Z,14.90
2018-01-22T07:46:12.688Z,16.60
2018-01-22T07:48:41.597Z,14.73
2018-01-22T07:51:09.712Z,14.10
2018-01-22T07:53:37.869Z,15.60
2018-01-22T07:56:06.000Z,14.35
2018-01-22T07:58:34.179Z,13.25
2018-01-22T08:01:02.270Z,14.20
2018-01-22T08:03:30.431Z,15.35
2018-01-22T08:05:58.564Z,16.60
2018-01-22T08:08:26.707Z,14.05
2018-01-22T08:10:54.905Z,14.52
2018-01-22T08:13:23.795Z,12.63
2018-01-22T08:15:52.708Z,12.75
2018-01-22T08:18:20.849Z,10.80
2018-01-22T08:20:49.757Z,14.00
2018-01-22T08:23:17.919Z,11.88
2018-01-22T08:25:46.815Z,15.50
2018-01-22T08:28:14.949Z,11.65
2018-01-22T08:30:43.092Z,11.00
2018-01-22T08:33:11.210Z,12.45
2018-01-22T08:35:40.110Z,13.10
2018-01-22T08:38:09.043Z,11.65
2018-01-22T08:40:37.177Z,12.52
2018-01-22T08:43:05.312Z,12.20
2018-01-22T08:45:33.452Z,11.80
2018-01-22T08:48:01.627Z,12.40
2018-01-22T08:50:29.763Z,12.40
2018-01-22T08:52:57.900Z,11.50
2018-01-22T08:55:26.051Z,12.20
2018-01-22T08:57:54.170Z,12.27
2018-01-22T09:00:23.084Z,11.90
2018-01-22T09:02:51.208Z,12.30
2018-01-22T09:05:19.688Z,11.68
2018-01-22T09:07:47.822Z,13.62
2018-01-22T09:10:15.955Z,13.48
2018-01-22T09:12:44.839Z,15.98
2018-01-22T09:15:13.754Z,13.80
2018-01-22T09:17:41.873Z,11.55
2018-01-22T09:20:09.988Z,13.00
2018-01-22T09:22:38.904Z,15.07
2018-01-22T09:25:07.016Z,11.65
2018-01-22T09:27:35.160Z,15.80
2018-01-22T09:30:03.277Z,12.27
2018-01-22T09:32:32.172Z,12.55
2018-01-22T09:35:01.057Z,14.13
2018-01-22T09:37:29.962Z,12.40
2018-01-22T09:39:58.084Z,12.57
2018-01-22T09:42:26.216Z,11.57
2018-01-22T09:44:54.348Z,11.85
2018-01-22T09:47:23.253Z,12.68
2018-01-22T09:49:52.134Z,9.50
2018-01-22T09:52:21.100Z,12.18
2018-01-22T09:54:49.195Z,15.07
2018-01-22T10:00:14.527Z,12.90
2018-01-22T10:02:42.702Z,11.65
2018-01-22T10:05:11.585Z,12.75
2018-01-22T10:07:40.497Z,13.60
2018-01-22T10:10:08.638Z,12.15
2018-01-22T10:12:37.543Z,12.10
2018-01-22T10:15:05.706Z,13.77
2018-01-22T10:17:34.609Z,11.05
2018-01-22T10:20:02.757Z,12.98
2018-01-22T10:22:30.881Z,14.48
2018-01-22T10:24:59.011Z,12.23
2018-01-22T10:27:27.901Z,10.95
2018-01-22T10:29:56.061Z,12.73
2018-01-22T10:32:24.964Z,15.00
2018-01-22T10:34:53.882Z,13.70
2018-01-22T10:37:22.024Z,11.15
2018-01-22T10:39:50.933Z,14.23
2018-01-22T10:42:19.065Z,13.35
2018-01-22T10:44:47.191Z,12.85
2018-01-22T10:47:15.334Z,14.50
2018-01-22T10:49:43.465Z,10.55
2018-01-22T10:52:11.621Z,13.23
2018-01-22T10:54:39.776Z,13.25
2018-01-22T10:57:07.916Z,11.30
2018-01-22T10:59:36.052Z,11.95
2018-01-22T11:02:04.177Z,13.05
2018-01-22T11:04:32.522Z,8.57
2018-01-22T11:07:00.698Z,9.65
2018-01-22T11:09:29.730Z,13.05
2018-01-22T11:11:57.879Z,11.52
2018-01-22T11:14:26.087Z,14.00
2018-01-22T11:16:54.261Z,13.05
2018-01-22T11:19:22.532Z,10.88
2018-01-22T11:21:50.760Z,10.73
2018-01-22T11:24:19.830Z,11.45
2018-01-22T11:26:48.329Z,15.20
2018-01-22T11:29:16.482Z,18.55
2018-01-22T11:31:44.842Z,20.02
2018-01-22T11:34:13.803Z,16.85
2018-01-22T11:36:41.933Z,12.45
2018-01-22T11:39:10.833Z,17.73
2018-01-22T11:41:38.955Z,13.23
2018-01-22T11:44:07.092Z,13.32
2018-01-22T11:46:35.221Z,13.45
2018-01-22T11:49:03.357Z,20.65
2018-01-22T11:51:31.485Z,13.68
2018-01-22T11:54:00.386Z,15.57
2018-01-22T11:56:28.528Z,17.70
2018-01-22T11:58:56.672Z,12.52
2018-01-22T12:01:24.797Z,14.15
2018-01-22T12:03:52.920Z,18.90
2018-01-22T12:06:21.076Z,17.70
2018-01-22T12:08:49.184Z,17.02
2018-01-22T12:11:17.338Z,12.57
2018-01-22T12:13:45.456Z,9.90
2018-01-22T12:16:13.597Z,11.57
2018-01-22T12:18:41.756Z,13.55
2018-01-22T12:21:09.896Z,11.65
2018-01-22T12:23:38.029Z,13.43
2018-01-22T12:26:06.936Z,11.25
2018-01-22T12:28:35.076Z,15.60
2018-01-22T12:31:04.045Z,11.63
2018-01-22T12:33:32.252Z,14.30
2018-01-22T12:36:01.203Z,11.20
2018-01-22T12:38:29.436Z,8.70
2018-01-22T12:40:57.573Z,10.25
2018-01-22T12:43:26.481Z,9.60
2018-01-22T12:45:54.678Z,9.40
2018-01-22T12:48:22.937Z,9.80
2018-01-22T12:50:51.186Z,17.17
2018-01-22T12:53:19.466Z,12.57
2018-01-22T12:55:47.868Z,8.85
2018-01-22T12:58:16.831Z,12.20
2018-01-22T13:00:45.814Z,8.15
2018-01-22T13:03:14.568Z,7.97
2018-01-22T13:05:42.793Z,8.02
2018-01-22T13:08:10.913Z,10.15
2018-01-22T13:10:40.178Z,13.20
2018-01-22T13:13:08.384Z,7.68
2018-01-22T13:15:36.516Z,8.20
2018-01-22T13:18:05.526Z,9.10
2018-01-22T13:20:33.734Z,9.83
2018-01-22T13:23:06.932Z,7.68
2018-01-22T13:25:39.119Z,9.52
2018-01-22T13:28:07.458Z,9.07
2018-01-22T13:30:35.702Z,10.53
2018-01-22T13:33:03.893Z,12.90
2018-01-22T13:35:32.199Z,10.00
2018-01-22T13:38:00.513Z,8.37
2018-01-22T13:40:34.969Z,9.10
2018-01-22T13:43:03.153Z,9.07
2018-01-22T13:45:32.060Z,6.67
2018-01-22T13:48:00.253Z,6.50
2018-01-22T13:50:29.205Z,5.83
2018-01-22T13:52:57.301Z,5.20
2018-01-22T13:55:25.446Z,6.70
2018-01-22T13:57:53.664Z,8.80
2018-01-22T14:00:22.033Z,8.10
2018-01-22T14:02:51.088Z,11.93
2018-01-22T14:05:20.245Z,7.87
2018-01-22T14:07:48.565Z,6.10
2018-01-22T14:10:17.631Z,7.83
2018-01-22T14:12:45.800Z,8.50
2018-01-22T14:15:14.446Z,8.90
2018-01-22T14:17:43.471Z,7.83
2018-01-22T14:20:11.716Z,8.67
2018-01-22T14:22:39.850Z,8.00
2018-01-22T14:25:07.993Z,7.70
2018-01-22T14:27:36.113Z,7.37
2018-01-22T14:30:05.009Z,9.30
2018-01-22T14:32:33.585Z,7.50
2018-01-22T14:35:01.688Z,9.70
2018-01-22T14:37:29.836Z,9.40
2018-01-22T14:39:57.993Z,10.63
2018-01-22T14:42:26.126Z,9.00
2018-01-22T14:44:54.256Z,10.98
2018-01-22T14:47:23.154Z,8.40
2018-01-22T14:49:51.281Z,11.57
2018-01-22T14:52:19.401Z,15.60
2018-01-22T14:54:47.542Z,14.97
2018-01-22T14:57:15.688Z,15.00
2018-01-22T14:59:43.820Z,11.57
2018-01-22T15:02:11.953Z,12.90
2018-01-22T15:04:40.093Z,11.63
2018-01-22T15:07:08.238Z,11.20
2018-01-22T15:09:36.374Z,8.10
2018-01-22T15:12:05.261Z,10.37
2018-01-22T15:14:34.233Z,12.43
2018-01-22T15:17:02.446Z,15.75
2018-01-22T15:19:31.871Z,9.00
2018-01-22T15:22:00.092Z,11.00
2018-01-22T15:24:28.540Z,12.13
2018-01-22T15:26:56.801Z,10.27
2018-01-22T15:29:25.798Z,10.47
2018-01-22T15:31:54.025Z,13.10
2018-01-22T15:34:22.234Z,24.50
2018-01-22T15:36:50.562Z,17.50
2018-01-22T15:39:18.669Z,17.60
2018-01-22T15:41:46.849Z,20.97
2018-01-22T15:44:14.980Z,30.10
2018-01-22T15:46:44.060Z,35.23
2018-01-22T15:49:12.254Z,24.52
2018-01-22T15:51:41.157Z,23.60
2018-01-22T15:54:09.326Z,24.35
2018-01-22T15:56:38.201Z,20.10
2018-01-22T15:59:07.130Z,22.37
2018-01-22T16:01:35.272Z,30.57
2018-01-22T16:04:03.907Z,29.23
2018-01-22T16:06:32.037Z,30.13
2018-01-22T16:09:00.184Z,20.90
2018-01-22T16:11:29.078Z,26.47
2018-01-22T16:13:57.988Z,19.67
2018-01-22T16:16:26.140Z,28.03
2018-01-22T16:18:55.039Z,41.90
2018-01-22T16:21:23.298Z,31.80
2018-01-22T16:23:53.061Z,25.80
2018-01-22T16:26:21.205Z,43.27
2018-01-22T16:28:50.261Z,25.45
2018-01-22T16:31:19.191Z,46.83
2018-01-22T16:33:47.318Z,29.27
2018-01-22T16:36:15.502Z,32.55
2018-01-22T16:38:43.809Z,37.33
2018-01-22T16:41:12.159Z,22.10
2018-01-22T16:43:41.053Z,23.20
2018-01-22T16:46:09.196Z,23.97
2018-01-22T16:48:37.333Z,23.97
2018-01-22T16:51:05.491Z,24.67
2018-01-22T16:53:33.604Z,25.70
2018-01-22T16:56:01.760Z,23.50
2018-01-22T16:58:30.668Z,25.00
2018-01-22T17:00:58.788Z,36.67
2018-01-22T17:03:26.948Z,39.27
2018-01-22T17:05:55.084Z,21.80
2018-01-22T17:08:23.228Z,26.80
2018-01-22T17:10:51.380Z,31.95
2018-01-22T17:13:19.584Z,38.73
2018-01-22T17:15:49.200Z,30.57
2018-01-22T17:18:17.670Z,22.97
2018-01-22T17:20:46.000Z,19.80
2018-01-22T17:23:14.889Z,22.30
2018-01-22T17:25:43.079Z,22.50
2018-01-22T17:28:11.202Z,19.40
2018-01-22T17:30:39.353Z,26.53
2018-01-22T17:33:07.481Z,24.30
2018-01-22T17:35:35.658Z,33.93
2018-01-22T17:38:03.781Z,24.60
2018-01-22T17:40:31.930Z,33.87
2018-01-22T17:43:00.053Z,30.10
2018-01-22T17:45:28.189Z,19.10
2018-01-22T17:47:56.327Z,23.12
2018-01-22T17:50:24.510Z,20.23
2018-01-22T17:52:52.620Z,24.27
2018-01-22T17:55:20.740Z,37.23
2018-01-22T17:57:48.945Z,27.58
2018-01-22T18:00:17.114Z,24.83
2018-01-22T18:02:46.072Z,34.88
2018-01-22T18:05:14.188Z,44.00
2018-01-22T18:07:42.337Z,55.67
2018-01-22T18:10:10.498Z,31.17
2018-01-22T18:12:38.625Z,37.13
2018-01-22T18:15:06.802Z,23.73
2018-01-22T18:17:35.790Z,42.30
2018-01-22T18:20:04.726Z,24.87
2018-01-22T18:22:32.955Z,34.67
2018-01-22T18:25:01.841Z,37.17
2018-01-22T18:27:30.944Z,30.30
2018-01-22T18:29:59.208Z,44.27
2018-01-22T18:32:27.353Z,26.30
2018-01-22T18:34:55.548Z,27.87
2018-01-22T18:37:24.598Z,28.77
2018-01-22T18:39:54.063Z,52.75
2018-01-22T18:42:22.355Z,51.40
2018-01-22T18:44:50.664Z,47.15
2018-01-22T18:47:18.884Z,48.97
2018-01-22T18:49:47.838Z,33.80
2018-01-22T18:52:16.958Z,26.40
2018-01-22T18:54:45.143Z,28.97
2018-01-22T18:57:14.193Z,24.33
2018-01-22T18:59:42.466Z,24.67
2018-01-22T19:02:10.650Z,23.50
2018-01-22T19:04:38.966Z,21.20
2018-01-22T19:07:07.148Z,20.70
2018-01-22T19:09:35.476Z,21.97
2018-01-22T19:12:03.845Z,24.10
2018-01-22T19:14:32.144Z,25.13
2018-01-22T19:17:00.562Z,22.70
2018-01-22T19:19:29.101Z,22.80
2018-01-22T19:21:58.001Z,22.60
2018-01-22T19:24:26.944Z,34.17
2018-01-22T19:26:55.088Z,25.93
2018-01-22T19:29:23.224Z,27.63
2018-01-22T19:31:52.192Z,26.30
2018-01-22T19:34:20.363Z,35.33
2018-01-22T19:36:48.497Z,32.83
2018-01-22T19:39:16.683Z,30.93
2018-01-22T19:41:44.963Z,28.60
2018-01-22T19:44:13.111Z,33.30
2018-01-22T19:46:41.277Z,38.87
2018-01-22T19:49:09.495Z,32.13
2018-01-22T19:51:37.644Z,34.63
2018-01-22T19:54:06.664Z,39.40
2018-01-22T19:56:35.591Z,42.43
2018-01-22T19:59:04.624Z,53.87
2018-01-22T20:01:32.833Z,46.70
2018-01-22T20:04:01.135Z,30.40
2018-01-22T20:06:29.394Z,44.80
2018-01-22T20:08:57.630Z,49.17
2018-01-22T20:11:25.904Z,49.37
2018-01-22T20:13:54.338Z,30.60
2018-01-22T20:16:23.315Z,46.70
2018-01-22T20:18:52.268Z,49.53
2018-01-22T20:21:20.552Z,35.60
2018-01-22T20:23:48.761Z,44.80
2018-01-22T20:26:17.948Z,31.03
2018-01-22T20:28:46.091Z,43.70
2018-01-22T20:31:14.816Z,53.33
2018-01-22T20:33:43.464Z,44.10
2018-01-22T20:36:11.585Z,33.87
2018-01-22T20:38:39.712Z,29.70
2018-01-22T20:41:07.845Z,35.20
2018-01-22T20:43:36.148Z,28.83
2018-01-22T20:46:04.352Z,35.67
2018-01-22T20:48:33.350Z,27.70
2018-01-22T20:51:02.347Z,25.60
2018-01-22T20:53:31.282Z,25.83
2018-01-22T20:55:59.541Z,27.63
2018-01-22T20:58:27.789Z,26.27
2018-01-22T21:00:55.942Z,31.70
2018-01-22T21:03:24.105Z,28.90
2018-01-22T21:05:52.378Z,28.03
2018-01-22T21:08:20.585Z,34.97
2018-01-22T21:10:48.809Z,26.97
2018-01-22T21:13:17.048Z,28.37
2018-01-22T21:15:45.207Z,28.10
2018-01-22T21:18:13.394Z,29.30
2018-01-22T21:20:41.646Z,34.30
2018-01-22T21:23:09.802Z,27.30
2018-01-22T21:25:39.126Z,32.80
2018-01-22T21:28:07.224Z,30.37
2018-01-22T21:30:35.356Z,26.90
2018-01-22T21:33:03.528Z,28.83
2018-01-22T21:35:32.416Z,32.53
2018-01-22T21:38:00.628Z,28.10
2018-01-22T21:40:28.796Z,36.70
2018-01-22T21:42:56.947Z,27.97
2018-01-22T21:45:25.085Z,25.17
2018-01-22T21:47:53.323Z,25.80
2018-01-22T21:50:21.662Z,33.90
2018-01-22T21:52:50.830Z,24.93
2018-01-22T21:55:19.024Z,24.53
2018-01-22T21:57:48.050Z,23.57
2018-01-22T22:00:16.247Z,25.00
2018-01-22T22:02:44.476Z,28.10
2018-01-22T22:05:13.438Z,28.60
2018-01-22T22:07:41.591Z,22.80
2018-01-22T22:10:09.790Z,23.47
2018-01-22T22:12:38.710Z,26.03
2018-01-22T22:15:06.900Z,21.33
2018-01-22T22:17:35.010Z,19.70
2018-01-22T22:20:03.933Z,19.63
2018-01-22T22:22:32.108Z,19.10
2018-01-22T22:25:00.241Z,22.33
2018-01-22T22:27:28.417Z,17.90
2018-01-22T22:29:56.597Z,41.03
2018-01-22T22:32:24.753Z,21.67
2018-01-22T22:34:52.894Z,15.63
2018-01-22T22:37:21.155Z,15.60
2018-01-22T22:39:49.381Z,16.50
2018-01-22T22:42:17.527Z,16.50
2018-01-22T22:44:45.671Z,18.20
2018-01-22T22:47:13.815Z,16.10
2018-01-22T22:49:42.972Z,15.40
2018-01-22T22:52:11.197Z,17.40
2018-01-22T22:54:39.452Z,15.47
2018-01-22T22:57:08.398Z,15.27
2018-01-22T22:59:36.530Z,17.37
2018-01-22T23:02:04.680Z,16.00
2018-01-22T23:04:33.573Z,15.00
2018-01-22T23:07:01.804Z,18.90
2018-01-22T23:09:30.109Z,16.70
2018-01-22T23:11:58.235Z,16.87
2018-01-22T23:14:26.379Z,16.27
2018-01-22T23:16:55.346Z,17.23
2018-01-22T23:19:24.317Z,15.60
2018-01-22T23:21:52.489Z,15.23
2018-01-22T23:24:20.633Z,15.50
2018-01-22T23:26:48.818Z,15.50
2018-01-22T23:29:16.969Z,13.70
2018-01-22T23:31:45.209Z,16.80
2018-01-22T23:34:14.189Z,14.07
2018-01-22T23:36:43.081Z,14.07
2018-01-22T23:39:11.985Z,14.13
2018-01-22T23:41:40.881Z,12.53
2018-01-22T23:44:09.049Z,13.13
2018-01-22T23:46:37.164Z,12.60
2018-01-22T23:49:05.392Z,12.77
2018-01-22T23:51:33.598Z,12.67
2018-01-22T23:54:01.766Z,12.60
2018-01-22T23:56:29.969Z,10.67
2018-01-22T23:58:58.101Z,11.60
